sensor_id;sensor_type;location;lat;lon;timestamp;pressure;altitude;pressure_sealevel;temperature;humidity
16481;BME280;44634;54.110;12.138;2023-04-01T00:00:21;99173.56;;;9.43;100.00
16481;BME280;44634;54.110;12.138;2023-04-01T00:02:50;99183.84;;;9.14;100.00
16481;BME280;44634;54.110;12.138;2023-04-01T00:05:18;99219.91;;;9.30;100.00
16481;BME280;44634;54.110;12.138;2023-04-01T00:07:46;99204.25;;;9.44;100.00
16481;BME280;44634;54.110;12.138;2023-04-01T00:10:14;99202.13;;;9.07;100.00
16481;BME280;44634;54.110;12.138;2023-04-01T00:12:42;99210.88;;;9.16;100.00
16481;BME280;44634;54.110;12.138;2023-04-01T00:15:11;99209.72;;;9.27;100.00
16481;BME280;44634;54.110;12.138;2023-04-01T00:17:39;99220.59;;;8.99;100.00
16481;BME280;44634;54.110;12.138;2023-04-01T00:20:09;99218.75;;;9.40;100.00
16481;BME280;44634;54.110;12.138;2023-04-01T00:22:38;99202.13;;;8.99;100.00
16481;BME280;44634;54.110;12.138;2023-04-01T00:25:06;99196.34;;;9.20;100.00
16481;BME280;44634;54.110;12.138;2023-04-01T00:27:34;99188.06;;;9.56;100.00
16481;BME280;44634;54.110;12.138;2023-04-01T00:30:03;99195.84;;;9.41;100.00
16481;BME280;44634;54.110;12.138;2023-04-01T00:32:32;99201.31;;;9.15;100.00
16481;BME280;44634;54.110;12.138;2023-04-01T00:35:00;99205.41;;;9.17;100.00
16481;BME280;44634;54.110;12.138;2023-04-01T00:37:29;99208.06;;;9.17;100.00
16481;BME280;44634;54.110;12.138;2023-04-01T00:39:57;99207.22;;;9.33;100.00
16481;BME280;44634;54.110;12.138;2023-04-01T00:42:25;99205.44;;;9.01;100.00
16481;BME280;44634;54.110;12.138;2023-04-01T00:44:54;99211.84;;;9.31;100.00
16481;BME280;44634;54.110;12.138;2023-04-01T00:47:22;99200.13;;;9.25;100.00
16481;BME280;44634;54.110;12.138;2023-04-01T00:49:53;99208.22;;;8.91;100.00
16481;BME280;44634;54.110;12.138;2023-04-01T00:52:23;99225.84;;;8.83;100.00
16481;BME280;44634;54.110;12.138;2023-04-01T00:54:56;99231.78;;;9.01;100.00
16481;BME280;44634;54.110;12.138;2023-04-01T00:57:28;99227.69;;;8.99;100.00
16481;BME280;44634;54.110;12.138;2023-04-01T00:59:58;99217.41;;;9.52;100.00
16481;BME280;44634;54.110;12.138;2023-04-01T01:02:26;99195.97;;;9.39;100.00
16481;BME280;44634;54.110;12.138;2023-04-01T01:04:54;99209.88;;;8.84;100.00
16481;BME280;44634;54.110;12.138;2023-04-01T01:07:27;99216.13;;;8.83;100.00
16481;BME280;44634;54.110;12.138;2023-04-01T01:10:07;99225.78;;;8.50;100.00
16481;BME280;44634;54.110;12.138;2023-04-01T01:12:41;99235.88;;;8.71;100.00
16481;BME280;44634;54.110;12.138;2023-04-01T01:15:16;99228.66;;;9.06;100.00
16481;BME280;44634;54.110;12.138;2023-04-01T01:17:57;99232.41;;;8.54;100.00
16481;BME280;44634;54.110;12.138;2023-04-01T01:24:13;99259.44;;;8.30;100.00
16481;BME280;44634;54.110;12.138;2023-04-01T01:26:57;99246.91;;;8.75;100.00
16481;BME280;44634;54.110;12.138;2023-04-01T01:29:59;99245.28;;;9.06;100.00
16481;BME280;44634;54.110;12.138;2023-04-01T01:32:42;99221.91;;;8.87;100.00
16481;BME280;44634;54.110;12.138;2023-04-01T01:35:22;99227.97;;;8.95;100.00
16481;BME280;44634;54.110;12.138;2023-04-01T01:37:54;99233.91;;;8.81;100.00
16481;BME280;44634;54.110;12.138;2023-04-01T01:40:24;99235.25;;;8.85;100.00
16481;BME280;44634;54.110;12.138;2023-04-01T01:42:57;99233.59;;;9.09;100.00
16481;BME280;44634;54.110;12.138;2023-04-01T01:45:27;99223.22;;;9.07;100.00
16481;BME280;44634;54.110;12.138;2023-04-01T01:47:59;99226.50;;;8.69;100.00
16481;BME280;44634;54.110;12.138;2023-04-01T01:50:53;99239.53;;;9.03;100.00
16481;BME280;44634;54.110;12.138;2023-04-01T01:53:45;99240.16;;;8.72;100.00
16481;BME280;44634;54.110;12.138;2023-04-01T01:56:37;99245.44;;;8.80;100.00
16481;BME280;44634;54.110;12.138;2023-04-01T01:59:30;99233.78;;;8.99;100.00
16481;BME280;44634;54.110;12.138;2023-04-01T02:02:25;99235.88;;;8.79;100.00
16481;BME280;44634;54.110;12.138;2023-04-01T02:05:20;99251.19;;;8.76;100.00
16481;BME280;44634;54.110;12.138;2023-04-01T02:08:16;99261.56;;;8.27;100.00
16481;BME280;44634;54.110;12.138;2023-04-01T02:11:11;99260.44;;;8.29;100.00
16481;BME280;44634;54.110;12.138;2023-04-01T02:14:05;99261.66;;;8.51;100.00
16481;BME280;44634;54.110;12.138;2023-04-01T02:17:02;99266.47;;;8.64;100.00
16481;BME280;44634;54.110;12.138;2023-04-01T02:19:58;99262.41;;;8.27;100.00
16481;BME280;44634;54.110;12.138;2023-04-01T02:22:53;99264.91;;;8.37;100.00
16481;BME280;44634;54.110;12.138;2023-04-01T02:25:47;99262.88;;;8.81;100.00
16481;BME280;44634;54.110;12.138;2023-04-01T02:28:40;99260.78;;;9.01;100.00
16481;BME280;44634;54.110;12.138;2023-04-01T02:31:33;99262.25;;;8.95;100.00
16481;BME280;44634;54.110;12.138;2023-04-01T02:34:26;99271.22;;;8.18;100.00
16481;BME280;44634;54.110;12.138;2023-04-01T02:37:18;99285.41;;;8.59;100.00
16481;BME280;44634;54.110;12.138;2023-04-01T08:04:15;99675.69;;;8.64;100.00
16481;BME280;44634;54.110;12.138;2023-04-01T08:06:47;99680.66;;;9.03;100.00
16481;BME280;44634;54.110;12.138;2023-04-01T08:09:25;99691.66;;;8.63;100.00
16481;BME280;44634;54.110;12.138;2023-04-01T08:12:04;99690.47;;;8.12;100.00
16481;BME280;44634;54.110;12.138;2023-04-01T08:14:43;99686.53;;;7.98;100.00
16481;BME280;44634;54.110;12.138;2023-04-01T08:17:19;99700.31;;;7.83;100.00
16481;BME280;44634;54.110;12.138;2023-04-01T08:20:03;99692.63;;;8.17;100.00
16481;BME280;44634;54.110;12.138;2023-04-01T08:22:38;99697.22;;;8.15;100.00
16481;BME280;44634;54.110;12.138;2023-04-01T08:25:14;99702.66;;;8.58;100.00
16481;BME280;44634;54.110;12.138;2023-04-01T08:27:45;99715.66;;;7.87;100.00
16481;BME280;44634;54.110;12.138;2023-04-01T08:30:18;99719.28;;;7.76;100.00
16481;BME280;44634;54.110;12.138;2023-04-01T08:32:51;99722.13;;;8.20;100.00
16481;BME280;44634;54.110;12.138;2023-04-01T08:35:27;99726.22;;;8.05;100.00
16481;BME280;44634;54.110;12.138;2023-04-01T08:38:01;99735.16;;;7.57;100.00
16481;BME280;44634;54.110;12.138;2023-04-01T08:40:51;99732.72;;;7.83;100.00
16481;BME280;44634;54.110;12.138;2023-04-01T08:43:35;99735.38;;;8.11;100.00
16481;BME280;44634;54.110;12.138;2023-04-01T08:46:17;99749.78;;;8.61;100.00
16481;BME280;44634;54.110;12.138;2023-04-01T08:49:05;99758.03;;;8.21;100.00
16481;BME280;44634;54.110;12.138;2023-04-01T08:52:00;99769.25;;;7.86;100.00
16481;BME280;44634;54.110;12.138;2023-04-01T08:54:46;99756.00;;;8.43;100.00
16481;BME280;44634;54.110;12.138;2023-04-01T08:57:22;99772.34;;;8.46;100.00
16481;BME280;44634;54.110;12.138;2023-04-01T09:00:03;99767.78;;;8.39;100.00
16481;BME280;44634;54.110;12.138;2023-04-01T09:02:55;99776.41;;;8.41;100.00
16481;BME280;44634;54.110;12.138;2023-04-01T09:06:07;99777.66;;;8.82;100.00
16481;BME280;44634;54.110;12.138;2023-04-01T09:08:52;99794.63;;;8.52;100.00
16481;BME280;44634;54.110;12.138;2023-04-01T09:11:34;99789.63;;;9.47;100.00
16481;BME280;44634;54.110;12.138;2023-04-01T09:14:42;99835.03;;;8.33;100.00
16481;BME280;44634;54.110;12.138;2023-04-01T09:20:44;99808.19;;;7.83;100.00
16481;BME280;44634;54.110;12.138;2023-04-01T09:23:34;99796.97;;;9.00;100.00
16481;BME280;44634;54.110;12.138;2023-04-01T09:26:16;99823.63;;;8.05;100.00
16481;BME280;44634;54.110;12.138;2023-04-01T09:28:54;99825.81;;;8.56;100.00
16481;BME280;44634;54.110;12.138;2023-04-01T09:31:42;99848.34;;;8.41;100.00
16481;BME280;44634;54.110;12.138;2023-04-01T09:34:39;99853.72;;;8.02;100.00
16481;BME280;44634;54.110;12.138;2023-04-01T09:37:19;99841.53;;;8.39;100.00
16481;BME280;44634;54.110;12.138;2023-04-01T09:40:02;99871.44;;;8.10;100.00
16481;BME280;44634;54.110;12.138;2023-04-01T09:42:45;99868.84;;;8.38;100.00
16481;BME280;44634;54.110;12.138;2023-04-01T09:45:30;99859.94;;;8.01;100.00
16481;BME280;44634;54.110;12.138;2023-04-01T09:48:10;99867.09;;;8.28;100.00
16481;BME280;44634;54.110;12.138;2023-04-01T09:50:48;99874.94;;;7.91;100.00
16481;BME280;44634;54.110;12.138;2023-04-01T09:53:28;99862.19;;;7.87;100.00
16481;BME280;44634;54.110;12.138;2023-04-01T09:56:24;99870.09;;;8.33;100.00
16481;BME280;44634;54.110;12.138;2023-04-01T10:09:05;99920.19;;;8.71;100.00
16481;BME280;44634;54.110;12.138;2023-04-01T10:12:04;99908.22;;;7.54;100.00
16481;BME280;44634;54.110;12.138;2023-04-01T10:17:44;99917.50;;;8.33;100.00
16481;BME280;44634;54.110;12.138;2023-04-01T10:20:30;99921.53;;;8.84;100.00
16481;BME280;44634;54.110;12.138;2023-04-01T10:23:37;99938.19;;;8.38;100.00
16481;BME280;44634;54.110;12.138;2023-04-01T10:32:52;99904.72;;;7.34;100.00
16481;BME280;44634;54.110;12.138;2023-04-01T10:38:37;99920.94;;;7.87;100.00
16481;BME280;44634;54.110;12.138;2023-04-01T10:41:41;99917.75;;;7.74;100.00
16481;BME280;44634;54.110;12.138;2023-04-01T10:50:16;99928.78;;;8.26;100.00
16481;BME280;44634;54.110;12.138;2023-04-01T10:53:11;99946.47;;;8.33;100.00
16481;BME280;44634;54.110;12.138;2023-04-01T11:02:36;99969.69;;;7.91;100.00
16481;BME280;44634;54.110;12.138;2023-04-01T11:05:50;99971.47;;;7.91;100.00
16481;BME280;44634;54.110;12.138;2023-04-01T11:11:58;99969.81;;;7.90;100.00
16481;BME280;44634;54.110;12.138;2023-04-01T11:17:48;99993.88;;;8.24;100.00
16481;BME280;44634;54.110;12.138;2023-04-01T11:20:53;100005.16;;;8.16;100.00
16481;BME280;44634;54.110;12.138;2023-04-01T11:23:47;99944.19;;;8.01;100.00
16481;BME280;44634;54.110;12.138;2023-04-01T11:26:33;99945.03;;;7.83;100.00
16481;BME280;44634;54.110;12.138;2023-04-01T11:29:35;99966.03;;;8.31;100.00
16481;BME280;44634;54.110;12.138;2023-04-01T11:32:28;100035.19;;;8.23;100.00
16481;BME280;44634;54.110;12.138;2023-04-01T11:35:23;100040.47;;;8.23;100.00
16481;BME280;44634;54.110;12.138;2023-04-01T11:37:59;100065.56;;;8.27;100.00
16481;BME280;44634;54.110;12.138;2023-04-01T11:40:35;100073.66;;;7.66;100.00
16481;BME280;44634;54.110;12.138;2023-04-01T11:43:09;100083.91;;;7.60;100.00
16481;BME280;44634;54.110;12.138;2023-04-01T11:46:02;100085.22;;;7.85;100.00
16481;BME280;44634;54.110;12.138;2023-04-01T11:48:55;100078.06;;;8.35;100.00
16481;BME280;44634;54.110;12.138;2023-04-01T11:51:36;100114.59;;;7.99;100.00
16481;BME280;44634;54.110;12.138;2023-04-01T11:54:17;100113.66;;;8.20;100.00
16481;BME280;44634;54.110;12.138;2023-04-01T11:57:05;100141.44;;;7.84;100.00
16481;BME280;44634;54.110;12.138;2023-04-01T11:59:53;100159.19;;;8.41;100.00
16481;BME280;44634;54.110;12.138;2023-04-01T12:02:29;100174.03;;;7.62;100.00
16481;BME280;44634;54.110;12.138;2023-04-01T12:05:20;100173.63;;;7.97;100.00
16481;BME280;44634;54.110;12.138;2023-04-01T12:08:01;100192.75;;;8.39;100.00
16481;BME280;44634;54.110;12.138;2023-04-01T12:10:39;100201.59;;;8.67;100.00
16481;BME280;44634;54.110;12.138;2023-04-01T12:13:16;100251.41;;;9.09;100.00
16481;BME280;44634;54.110;12.138;2023-04-01T12:15:57;100264.75;;;8.88;100.00
16481;BME280;44634;54.110;12.138;2023-04-01T12:18:35;100258.91;;;8.55;100.00
16481;BME280;44634;54.110;12.138;2023-04-01T12:21:17;100278.97;;;8.47;100.00
16481;BME280;44634;54.110;12.138;2023-04-01T12:26:49;100295.00;;;8.93;100.00
16481;BME280;44634;54.110;12.138;2023-04-01T12:29:44;100321.78;;;7.57;100.00
16481;BME280;44634;54.110;12.138;2023-04-01T12:32:21;100294.19;;;8.03;100.00
16481;BME280;44634;54.110;12.138;2023-04-01T12:35:10;100308.19;;;8.03;100.00
16481;BME280;44634;54.110;12.138;2023-04-01T12:37:48;100309.25;;;7.50;100.00
16481;BME280;44634;54.110;12.138;2023-04-01T12:40:31;100311.00;;;8.12;100.00
16481;BME280;44634;54.110;12.138;2023-04-01T12:43:22;100324.34;;;7.68;100.00
16481;BME280;44634;54.110;12.138;2023-04-01T12:45:59;100339.16;;;8.21;100.00
16481;BME280;44634;54.110;12.138;2023-04-01T12:48:39;100350.63;;;7.89;100.00
16481;BME280;44634;54.110;12.138;2023-04-01T12:51:34;100338.41;;;7.58;100.00
16481;BME280;44634;54.110;12.138;2023-04-01T12:54:16;100333.31;;;7.66;100.00
16481;BME280;44634;54.110;12.138;2023-04-01T12:56:56;100355.41;;;7.74;100.00
16481;BME280;44634;54.110;12.138;2023-04-01T12:59:44;100354.16;;;7.99;100.00
16481;BME280;44634;54.110;12.138;2023-04-01T13:02:25;100377.88;;;7.99;100.00
16481;BME280;44634;54.110;12.138;2023-04-01T13:05:20;100391.78;;;7.90;100.00
16481;BME280;44634;54.110;12.138;2023-04-01T13:08:04;100384.69;;;7.49;100.00
16481;BME280;44634;54.110;12.138;2023-04-01T13:10:53;100396.47;;;7.87;100.00
16481;BME280;44634;54.110;12.138;2023-04-01T13:13:38;100404.38;;;8.07;100.00
16481;BME280;44634;54.110;12.138;2023-04-01T13:16:11;100408.03;;;8.16;100.00
16481;BME280;44634;54.110;12.138;2023-04-01T13:18:54;100449.84;;;7.89;100.00
16481;BME280;44634;54.110;12.138;2023-04-01T13:21:42;100443.47;;;8.54;100.00
16481;BME280;44634;54.110;12.138;2023-04-01T13:24:24;100451.97;;;7.63;100.00
16481;BME280;44634;54.110;12.138;2023-04-01T13:27:01;100461.63;;;7.94;100.00
16481;BME280;44634;54.110;12.138;2023-04-01T13:29:36;100439.28;;;7.68;100.00
16481;BME280;44634;54.110;12.138;2023-04-01T13:32:18;100447.66;;;8.15;100.00
16481;BME280;44634;54.110;12.138;2023-04-01T13:35:16;100471.41;;;8.03;100.00
16481;BME280;44634;54.110;12.138;2023-04-01T13:37:57;100470.22;;;8.28;100.00
16481;BME280;44634;54.110;12.138;2023-04-01T13:40:34;100479.50;;;8.32;100.00
16481;BME280;44634;54.110;12.138;2023-04-01T13:43:14;100496.34;;;7.99;100.00
16481;BME280;44634;54.110;12.138;2023-04-01T13:54:54;100500.34;;;7.83;100.00
16481;BME280;44634;54.110;12.138;2023-04-01T13:57:38;100538.44;;;7.67;100.00
16481;BME280;44634;54.110;12.138;2023-04-01T14:00:25;100550.50;;;8.13;100.00
16481;BME280;44634;54.110;12.138;2023-04-01T14:03:09;100546.78;;;7.72;100.00
16481;BME280;44634;54.110;12.138;2023-04-01T14:05:54;100549.50;;;8.46;100.00
16481;BME280;44634;54.110;12.138;2023-04-01T14:08:34;100559.38;;;8.01;100.00
16481;BME280;44634;54.110;12.138;2023-04-01T14:11:17;100578.31;;;7.95;100.00
16481;BME280;44634;54.110;12.138;2023-04-01T14:13:57;100563.13;;;8.19;100.00
16481;BME280;44634;54.110;12.138;2023-04-01T14:20:00;100580.56;;;7.67;100.00
16481;BME280;44634;54.110;12.138;2023-04-01T14:22:38;100598.16;;;7.44;100.00
16481;BME280;44634;54.110;12.138;2023-04-01T14:25:26;100580.59;;;7.99;100.00
16481;BME280;44634;54.110;12.138;2023-04-01T14:28:10;100594.59;;;7.89;100.00
16481;BME280;44634;54.110;12.138;2023-04-01T14:31:13;100605.41;;;7.63;100.00
16481;BME280;44634;54.110;12.138;2023-04-01T14:33:48;100613.69;;;7.59;100.00
16481;BME280;44634;54.110;12.138;2023-04-01T14:36:43;100623.50;;;7.57;100.00
16481;BME280;44634;54.110;12.138;2023-04-01T14:39:26;100630.47;;;8.12;100.00
16481;BME280;44634;54.110;12.138;2023-04-01T14:42:08;100628.97;;;7.65;100.00
16481;BME280;44634;54.110;12.138;2023-04-01T14:45:04;100619.31;;;7.54;100.00
16481;BME280;44634;54.110;12.138;2023-04-01T14:47:44;100629.91;;;6.85;100.00
16481;BME280;44634;54.110;12.138;2023-04-01T14:50:16;100636.28;;;7.28;100.00
16481;BME280;44634;54.110;12.138;2023-04-01T14:52:55;100634.59;;;7.71;100.00
16481;BME280;44634;54.110;12.138;2023-04-01T14:55:31;100643.91;;;7.64;100.00
16481;BME280;44634;54.110;12.138;2023-04-01T14:58:09;100662.97;;;7.57;100.00
16481;BME280;44634;54.110;12.138;2023-04-01T15:00:50;100663.66;;;7.59;100.00
16481;BME280;44634;54.110;12.138;2023-04-01T15:03:26;100667.47;;;7.21;100.00
16481;BME280;44634;54.110;12.138;2023-04-01T15:06:24;100671.78;;;7.33;100.00
16481;BME280;44634;54.110;12.138;2023-04-01T15:09:01;100660.06;;;7.26;100.00
16481;BME280;44634;54.110;12.138;2023-04-01T15:11:54;100675.41;;;6.86;100.00
16481;BME280;44634;54.110;12.138;2023-04-01T15:14:37;100668.16;;;7.01;100.00
16481;BME280;44634;54.110;12.138;2023-04-01T15:17:33;100664.56;;;7.02;100.00
16481;BME280;44634;54.110;12.138;2023-04-01T15:20:33;100672.56;;;7.00;100.00
16481;BME280;44634;54.110;12.138;2023-04-01T15:23:21;100692.28;;;7.06;100.00
16481;BME280;44634;54.110;12.138;2023-04-01T15:26:13;100704.84;;;7.02;100.00
16481;BME280;44634;54.110;12.138;2023-04-01T15:28:52;100693.91;;;7.31;100.00
16481;BME280;44634;54.110;12.138;2023-04-01T15:31:25;100707.19;;;7.40;100.00
16481;BME280;44634;54.110;12.138;2023-04-01T15:34:09;100708.25;;;6.92;100.00
16481;BME280;44634;54.110;12.138;2023-04-01T15:36:51;100698.91;;;6.76;100.00
16481;BME280;44634;54.110;12.138;2023-04-01T15:39:27;100716.03;;;7.51;100.00
16481;BME280;44634;54.110;12.138;2023-04-01T15:42:15;100717.34;;;7.34;100.00
16481;BME280;44634;54.110;12.138;2023-04-01T15:44:55;100741.81;;;7.23;100.00
16481;BME280;44634;54.110;12.138;2023-04-01T15:47:33;100725.88;;;7.60;100.00
16481;BME280;44634;54.110;12.138;2023-04-01T15:53:13;100757.84;;;7.31;100.00
16481;BME280;44634;54.110;12.138;2023-04-01T15:55:48;100753.91;;;6.91;100.00
16481;BME280;44634;54.110;12.138;2023-04-01T15:58:30;100764.09;;;7.41;100.00
16481;BME280;44634;54.110;12.138;2023-04-01T16:01:10;100763.06;;;7.09;100.00
16481;BME280;44634;54.110;12.138;2023-04-01T16:03:51;100768.38;;;7.31;100.00
16481;BME280;44634;54.110;12.138;2023-04-01T16:06:32;100778.88;;;7.89;100.00
16481;BME280;44634;54.110;12.138;2023-04-01T16:09:16;100779.38;;;7.25;100.00
16481;BME280;44634;54.110;12.138;2023-04-01T16:11:51;100785.53;;;7.13;100.00
16481;BME280;44634;54.110;12.138;2023-04-01T16:14:31;100791.69;;;7.36;100.00
16481;BME280;44634;54.110;12.138;2023-04-01T16:17:11;100800.50;;;7.59;100.00
16481;BME280;44634;54.110;12.138;2023-04-01T16:19:51;100807.47;;;7.82;100.00
16481;BME280;44634;54.110;12.138;2023-04-01T16:22:23;100810.06;;;7.60;100.00
16481;BME280;44634;54.110;12.138;2023-04-01T16:25:01;100810.41;;;7.20;100.00
16481;BME280;44634;54.110;12.138;2023-04-01T16:27:43;100804.72;;;7.37;100.00
16481;BME280;44634;54.110;12.138;2023-04-01T16:30:36;100826.47;;;7.28;100.00
16481;BME280;44634;54.110;12.138;2023-04-01T16:33:10;100841.97;;;6.72;100.00
16481;BME280;44634;54.110;12.138;2023-04-01T16:35:44;100841.16;;;6.22;100.00
16481;BME280;44634;54.110;12.138;2023-04-01T16:38:19;100848.38;;;6.81;100.00
16481;BME280;44634;54.110;12.138;2023-04-01T16:41:00;100870.66;;;7.23;100.00
16481;BME280;44634;54.110;12.138;2023-04-01T16:43:30;100877.19;;;6.94;100.00
16481;BME280;44634;54.110;12.138;2023-04-01T16:46:26;100879.28;;;7.01;100.00
16481;BME280;44634;54.110;12.138;2023-04-01T16:49:23;100877.63;;;7.00;100.00
16481;BME280;44634;54.110;12.138;2023-04-01T16:51:54;100900.97;;;6.92;100.00
16481;BME280;44634;54.110;12.138;2023-04-01T16:54:31;100891.25;;;7.05;100.00
16481;BME280;44634;54.110;12.138;2023-04-01T16:57:14;100909.00;;;6.78;100.00
16481;BME280;44634;54.110;12.138;2023-04-01T16:59:47;100913.56;;;6.63;100.00
16481;BME280;44634;54.110;12.138;2023-04-01T17:02:25;100916.56;;;6.95;100.00
16481;BME280;44634;54.110;12.138;2023-04-01T17:04:58;100912.63;;;7.01;100.00
16481;BME280;44634;54.110;12.138;2023-04-01T17:07:35;100931.22;;;6.61;100.00
16481;BME280;44634;54.110;12.138;2023-04-01T17:10:34;100936.53;;;7.22;100.00
16481;BME280;44634;54.110;12.138;2023-04-01T17:13:26;100938.00;;;7.26;100.00
16481;BME280;44634;54.110;12.138;2023-04-01T17:16:04;100944.59;;;7.31;100.00
16481;BME280;44634;54.110;12.138;2023-04-01T17:18:43;100955.22;;;7.30;100.00
16481;BME280;44634;54.110;12.138;2023-04-01T17:21:17;100959.56;;;7.18;100.00
16481;BME280;44634;54.110;12.138;2023-04-01T17:23:51;100976.66;;;7.00;100.00
16481;BME280;44634;54.110;12.138;2023-04-01T17:26:28;100982.41;;;7.18;100.00
16481;BME280;44634;54.110;12.138;2023-04-01T17:29:05;100980.66;;;6.93;100.00
16481;BME280;44634;54.110;12.138;2023-04-01T17:31:45;100999.13;;;7.16;100.00
16481;BME280;44634;54.110;12.138;2023-04-01T17:34:32;101000.81;;;7.18;100.00
16481;BME280;44634;54.110;12.138;2023-04-01T17:37:18;101000.06;;;7.28;100.00
16481;BME280;44634;54.110;12.138;2023-04-01T17:40:00;100991.50;;;6.88;100.00
16481;BME280;44634;54.110;12.138;2023-04-01T17:42:40;100986.72;;;6.69;100.00
16481;BME280;44634;54.110;12.138;2023-04-01T17:45:13;100992.06;;;6.68;100.00
16481;BME280;44634;54.110;12.138;2023-04-01T17:47:53;101010.66;;;6.39;100.00
16481;BME280;44634;54.110;12.138;2023-04-01T17:50:42;101005.81;;;6.46;100.00
16481;BME280;44634;54.110;12.138;2023-04-01T17:53:23;101005.59;;;6.11;100.00
16481;BME280;44634;54.110;12.138;2023-04-01T17:56:04;101021.75;;;6.17;100.00
16481;BME280;44634;54.110;12.138;2023-04-01T17:58:44;101026.44;;;6.39;100.00
16481;BME280;44634;54.110;12.138;2023-04-01T18:01:22;101033.88;;;6.58;100.00
16481;BME280;44634;54.110;12.138;2023-04-01T18:04:10;101035.88;;;6.54;100.00
16481;BME280;44634;54.110;12.138;2023-04-01T18:07:03;101049.13;;;6.40;100.00
16481;BME280;44634;54.110;12.138;2023-04-01T18:09:43;101051.88;;;6.12;100.00
16481;BME280;44634;54.110;12.138;2023-04-01T18:12:20;101057.88;;;6.14;100.00
16481;BME280;44634;54.110;12.138;2023-04-01T18:15:04;101054.09;;;6.18;100.00
16481;BME280;44634;54.110;12.138;2023-04-01T18:17:44;101067.19;;;6.05;100.00
16481;BME280;44634;54.110;12.138;2023-04-01T18:20:25;101090.16;;;6.02;100.00
16481;BME280;44634;54.110;12.138;2023-04-01T18:23:03;101091.97;;;5.87;100.00
16481;BME280;44634;54.110;12.138;2023-04-01T18:25:36;101094.25;;;5.79;100.00
16481;BME280;44634;54.110;12.138;2023-04-01T18:28:18;101103.97;;;5.91;100.00
16481;BME280;44634;54.110;12.138;2023-04-01T18:30:52;101098.38;;;6.49;100.00
16481;BME280;44634;54.110;12.138;2023-04-01T18:33:25;101116.72;;;5.97;100.00
16481;BME280;44634;54.110;12.138;2023-04-01T18:36:08;101111.31;;;6.13;100.00
16481;BME280;44634;54.110;12.138;2023-04-01T18:38:41;101109.56;;;6.66;100.00
16481;BME280;44634;54.110;12.138;2023-04-01T18:41:14;101123.34;;;6.69;100.00
16481;BME280;44634;54.110;12.138;2023-04-01T18:43:51;101117.78;;;6.34;100.00
16481;BME280;44634;54.110;12.138;2023-04-01T18:46:30;101136.88;;;5.96;100.00
16481;BME280;44634;54.110;12.138;2023-04-01T18:49:07;101139.00;;;6.04;100.00
16481;BME280;44634;54.110;12.138;2023-04-01T18:51:45;101141.22;;;5.55;100.00
16481;BME280;44634;54.110;12.138;2023-04-01T18:54:22;101151.78;;;5.82;100.00
16481;BME280;44634;54.110;12.138;2023-04-01T18:57:02;101158.56;;;5.57;100.00
16481;BME280;44634;54.110;12.138;2023-04-01T18:59:36;101163.88;;;5.70;100.00
16481;BME280;44634;54.110;12.138;2023-04-01T19:02:15;101167.13;;;6.02;100.00
16481;BME280;44634;54.110;12.138;2023-04-01T19:04:47;101158.56;;;5.57;100.00
16481;BME280;44634;54.110;12.138;2023-04-01T19:07:40;101172.69;;;5.97;100.00
16481;BME280;44634;54.110;12.138;2023-04-01T19:10:17;101175.53;;;6.07;100.00
16481;BME280;44634;54.110;12.138;2023-04-01T19:13:03;101182.06;;;6.29;100.00
16481;BME280;44634;54.110;12.138;2023-04-01T19:15:39;101193.59;;;5.56;100.00
16481;BME280;44634;54.110;12.138;2023-04-01T19:18:25;101192.09;;;5.66;100.00
16481;BME280;44634;54.110;12.138;2023-04-01T19:21:01;101203.13;;;5.86;100.00
16481;BME280;44634;54.110;12.138;2023-04-01T19:23:59;101201.44;;;5.85;100.00
16481;BME280;44634;54.110;12.138;2023-04-01T19:26:35;101207.66;;;5.70;100.00
16481;BME280;44634;54.110;12.138;2023-04-01T19:29:16;101213.72;;;5.84;100.00
16481;BME280;44634;54.110;12.138;2023-04-01T19:31:54;101217.59;;;5.64;100.00
16481;BME280;44634;54.110;12.138;2023-04-01T19:34:37;101220.38;;;5.47;100.00
16481;BME280;44634;54.110;12.138;2023-04-01T19:37:17;101225.31;;;5.09;100.00
16481;BME280;44634;54.110;12.138;2023-04-01T19:39:54;101219.28;;;5.65;100.00
16481;BME280;44634;54.110;12.138;2023-04-01T19:42:31;101232.66;;;5.75;100.00
16481;BME280;44634;54.110;12.138;2023-04-01T19:45:17;101249.41;;;5.58;100.00
16481;BME280;44634;54.110;12.138;2023-04-01T19:47:57;101237.66;;;5.94;100.00
16481;BME280;44634;54.110;12.138;2023-04-01T19:50:31;101258.50;;;5.53;100.00
16481;BME280;44634;54.110;12.138;2023-04-01T19:53:13;101255.03;;;5.52;100.00
16481;BME280;44634;54.110;12.138;2023-04-01T19:55:48;101258.88;;;5.61;100.00
16481;BME280;44634;54.110;12.138;2023-04-01T19:58:25;101262.72;;;5.70;100.00
16481;BME280;44634;54.110;12.138;2023-04-01T20:00:58;101257.94;;;5.62;100.00
16481;BME280;44634;54.110;12.138;2023-04-01T20:03:34;101265.06;;;5.74;100.00
16481;BME280;44634;54.110;12.138;2023-04-01T20:06:11;101268.31;;;5.35;100.00
16481;BME280;44634;54.110;12.138;2023-04-01T20:08:52;101258.88;;;5.89;100.00
16481;BME280;44634;54.110;12.138;2023-04-01T20:11:34;101269.13;;;5.65;100.00
16481;BME280;44634;54.110;12.138;2023-04-01T20:14:14;101268.53;;;5.89;100.00
16481;BME280;44634;54.110;12.138;2023-04-01T20:16:52;101289.78;;;4.82;100.00
16481;BME280;44634;54.110;12.138;2023-04-01T20:19:27;101273.22;;;5.55;100.00
16481;BME280;44634;54.110;12.138;2023-04-01T20:21:57;101289.63;;;5.73;100.00
16481;BME280;44634;54.110;12.138;2023-04-01T20:24:30;101296.59;;;5.44;100.00
16481;BME280;44634;54.110;12.138;2023-04-01T20:27:03;101292.50;;;5.40;100.00